<?xml version='1.0' encoding='UTF-8'?>
<gpx xmlns="http://www.topografix.com/GPX/1/1" creator="www.balnam.be" version="1.1" xmlns:xsi="http://www.w3.org/2001/XMLSchema-instance" xsi:schemaLocation="http://www.topografix.com/GPX/1/1 http://www.topografix.com/GPX/1/1/gpx.xsd">
<trk>
<name>xdrgh48</name>
<cmt>q</cmt>
<desc>Grandhan Sentier n°48 </desc>
<link href="https://chemins.be/grandhan/sentier/48"/><trkseg>
<trkpt lat="50.339052" lon="5.435770"><time>2026-05-02T20:45:50Z</time></trkpt>
<trkpt lat="50.338653" lon="5.435157"><time>2026-05-02T20:55:50Z</time></trkpt>
<trkpt lat="50.338297" lon="5.434742"><time>2026-05-02T21:05:50Z</time></trkpt>
<trkpt lat="50.337707" lon="5.434321"><time>2026-05-02T21:15:50Z</time></trkpt>
<trkpt lat="50.337437" lon="5.434371"><time>2026-05-02T21:25:50Z</time></trkpt>
<trkpt lat="50.337148" lon="5.434670"><time>2026-05-02T21:35:50Z</time></trkpt>
</trkseg></trk>
<trk>
<name>xdrgh48</name>
<cmt>r</cmt>
<desc>Grandhan Sentier n°48 </desc>
<link href="https://chemins.be/grandhan/sentier/48"/><trkseg>
<trkpt lat="50.337148" lon="5.434670"><time>2026-05-02T21:35:50Z</time></trkpt>
<trkpt lat="50.336642" lon="5.433984"><time>2026-05-02T21:45:50Z</time></trkpt>
<trkpt lat="50.335642" lon="5.432160"><time>2026-05-02T21:55:50Z</time></trkpt>
</trkseg></trk>
<trk>
<name>xdrgh48</name>
<cmt>v</cmt>
<desc>Grandhan Sentier n°48 </desc>
<link href="https://chemins.be/grandhan/sentier/48"/><trkseg>
<trkpt lat="50.335642" lon="5.432160"><time>2026-05-02T21:55:50Z</time></trkpt>
<trkpt lat="50.334765" lon="5.431173"><time>2026-05-02T22:05:50Z</time></trkpt>
</trkseg></trk>
<trk>
<name>xdrgh48</name>
<cmt>q</cmt>
<desc>Grandhan Sentier n°48 </desc>
<link href="https://chemins.be/grandhan/sentier/48"/><trkseg>
<trkpt lat="50.334765" lon="5.431173"><time>2026-05-02T22:05:50Z</time></trkpt>
<trkpt lat="50.333478" lon="5.428727"><time>2026-05-02T22:15:50Z</time></trkpt>
<trkpt lat="50.332656" lon="5.424757"><time>2026-05-02T22:25:50Z</time></trkpt>
<trkpt lat="50.332601" lon="5.421141"><time>2026-05-02T22:35:50Z</time></trkpt>
<trkpt lat="50.330406" lon="5.414747"><time>2026-05-02T22:45:50Z</time></trkpt>
<trkpt lat="50.330043" lon="5.412751"><time>2026-05-02T22:55:50Z</time></trkpt>
</trkseg></trk>
<trk>
<name>xdrgh48</name>
<cmt>v</cmt>
<desc>Grandhan Sentier n°48 </desc>
<link href="https://chemins.be/grandhan/sentier/48"/><trkseg>
<trkpt lat="50.330043" lon="5.412751"><time>2026-05-02T22:55:50Z</time></trkpt>
<trkpt lat="50.330108" lon="5.412172"><time>2026-05-02T23:05:50Z</time></trkpt>
</trkseg></trk>
<trk>
<name>xdrgh48</name>
<cmt>r</cmt>
<desc>Grandhan Sentier n°48 </desc>
<link href="https://chemins.be/grandhan/sentier/48"/><trkseg>
<trkpt lat="50.330108" lon="5.412172"><time>2026-05-02T23:05:50Z</time></trkpt>
<trkpt lat="50.329465" lon="5.411239"><time>2026-05-02T23:15:50Z</time></trkpt>
<trkpt lat="50.329519" lon="5.410123"><time>2026-05-02T23:25:50Z</time></trkpt>
<trkpt lat="50.329286" lon="5.409404"><time>2026-05-02T23:35:50Z</time></trkpt>
<trkpt lat="50.330273" lon="5.407762"><time>2026-05-02T23:45:50Z</time></trkpt>
<trkpt lat="50.329821" lon="5.406818"><time>2026-05-02T23:55:50Z</time></trkpt>
</trkseg></trk>
<trk>
<name>xdrgh48</name>
<cmt>q</cmt>
<desc>Grandhan Sentier n°48 </desc>
<link href="https://chemins.be/grandhan/sentier/48"/><trkseg>
<trkpt lat="50.329821" lon="5.406818"><time>2026-05-02T23:55:50Z</time></trkpt>
<trkpt lat="50.330057" lon="5.403108"><time>2026-05-03T00:05:50Z</time></trkpt>
<trkpt lat="50.330369" lon="5.402190"><time>2026-05-03T00:15:50Z</time></trkpt>
</trkseg></trk>
<trk>
<name>xdrgh48</name>
<cmt>r</cmt>
<desc>Grandhan Sentier n°48 </desc>
<link href="https://chemins.be/grandhan/sentier/48"/><trkseg>
<trkpt lat="50.330369" lon="5.402190"><time>2026-05-03T00:15:50Z</time></trkpt>
<trkpt lat="50.329394" lon="5.398679"><time>2026-05-03T00:25:50Z</time></trkpt>
</trkseg></trk>
<trk>
<name>xdrgh48</name>
<cmt>v</cmt>
<desc>Grandhan Sentier n°48 </desc>
<link href="https://chemins.be/grandhan/sentier/48"/><trkseg>
<trkpt lat="50.329394" lon="5.398679"><time>2026-05-03T00:25:50Z</time></trkpt>
<trkpt lat="50.328840" lon="5.399186"><time>2026-05-03T00:35:50Z</time></trkpt>
</trkseg></trk>
<trk>
<name>xdrgh48</name>
<cmt>q</cmt>
<desc>Grandhan Sentier n°48 </desc>
<link href="https://chemins.be/grandhan/sentier/48"/><trkseg>
<trkpt lat="50.328840" lon="5.399186"><time>2026-05-03T00:35:50Z</time></trkpt>
<trkpt lat="50.327136" lon="5.397598"><time>2026-05-03T00:45:50Z</time></trkpt>
<trkpt lat="50.324056" lon="5.391781"><time>2026-05-03T00:55:50Z</time></trkpt>
<trkpt lat="50.323475" lon="5.390998"><time>2026-05-03T01:05:50Z</time></trkpt>
</trkseg></trk>
<trk>
<name>xdrgh48</name>
<cmt>d</cmt>
<desc>Grandhan Sentier n°48 </desc>
<link href="https://chemins.be/grandhan/sentier/48"/><trkseg>
<trkpt lat="50.323475" lon="5.390998"><time>2026-05-03T01:05:50Z</time></trkpt>
<trkpt lat="50.322417" lon="5.389350"><time>2026-05-03T01:15:50Z</time></trkpt>
</trkseg></trk>
<trk>
<name>xdrgh48</name>
<cmt>q</cmt>
<desc>Grandhan Sentier n°48 </desc>
<link href="https://chemins.be/grandhan/sentier/48"/><trkseg>
<trkpt lat="50.322417" lon="5.389350"><time>2026-05-03T01:15:50Z</time></trkpt>
<trkpt lat="50.317832" lon="5.379655"><time>2026-05-03T01:25:50Z</time></trkpt>
<trkpt lat="50.316930" lon="5.378792"><time>2026-05-03T01:35:50Z</time></trkpt>
</trkseg>
</trk>
</gpx>